createdAt,value
2023-04-21T00:01:29.861Z,97927.03
2023-04-21T00:03:57.421Z,97929.31
2023-04-21T00:06:24.462Z,97933.44
2023-04-21T00:08:51.433Z,97930.25
2023-04-21T00:11:18.860Z,97925.13
2023-04-21T00:13:46.530Z,97925.50
2023-04-21T00:16:13.656Z,97927.97
2023-04-21T00:18:41.036Z,97926.97
2023-04-21T00:21:08.011Z,97916.44
2023-04-21T00:23:35.151Z,97906.50
2023-04-21T00:26:03.057Z,97908.59
2023-04-21T00:28:30.350Z,97896.81
2023-04-21T00:30:59.040Z,97903.31
2023-04-21T00:33:26.704Z,97897.19
2023-04-21T00:35:57.170Z,97901.91
2023-04-21T00:38:24.601Z,97891.31
2023-04-21T00:40:51.611Z,97903.09
2023-04-21T00:43:19.042Z,97897.56
2023-04-21T00:45:47.159Z,97893.38
2023-04-21T00:48:14.135Z,97896.13
2023-04-21T00:50:41.582Z,97891.84
2023-04-21T00:53:09.896Z,97893.31
2023-04-21T00:55:37.712Z,97891.47
2023-04-21T00:58:05.527Z,97889.00
2023-04-21T01:00:33.289Z,97884.09
2023-04-21T01:03:01.835Z,97887.28
2023-04-21T01:05:29.533Z,97879.00
2023-04-21T01:07:56.577Z,97871.53
2023-04-21T01:10:23.603Z,97878.00
2023-04-21T01:12:52.020Z,97882.38
2023-04-21T01:15:19.231Z,97884.94
2023-04-21T01:17:47.022Z,97884.63
2023-04-21T01:20:15.378Z,97880.88
2023-04-21T01:22:44.906Z,97882.38
2023-04-21T01:25:12.334Z,97871.97
2023-04-21T01:27:39.357Z,97872.25
2023-04-21T01:30:07.561Z,97863.50
2023-04-21T01:32:36.177Z,97857.50
2023-04-21T01:35:03.773Z,97862.78
2023-04-21T01:37:33.142Z,97861.81
2023-04-21T01:40:05.389Z,97855.88
2023-04-21T01:42:36.057Z,97858.19
2023-04-21T01:45:03.952Z,97853.41
2023-04-21T01:47:31.034Z,97868.00
2023-04-21T01:49:58.020Z,97867.38
2023-04-21T01:52:25.526Z,97859.63
2023-04-21T01:54:54.672Z,97873.06
2023-04-21T01:57:21.849Z,97861.91
2023-04-21T01:59:51.309Z,97858.91
2023-04-21T02:02:18.539Z,97841.63
2023-04-21T02:04:46.143Z,97845.44
2023-04-21T02:07:13.528Z,97860.34
2023-04-21T02:09:42.562Z,97853.44
2023-04-21T02:12:09.910Z,97863.00
2023-04-21T02:14:38.174Z,97862.72
2023-04-21T02:17:07.953Z,97865.28
2023-04-21T02:19:35.420Z,97863.72
2023-04-21T02:22:02.548Z,97871.75
2023-04-21T02:24:29.981Z,97866.56
2023-04-21T02:26:58.561Z,97866.56
2023-04-21T02:29:28.702Z,97859.63
2023-04-21T02:32:05.356Z,97862.25
2023-04-21T02:34:38.023Z,97858.97
2023-04-21T02:37:06.304Z,97862.25
2023-04-21T02:39:33.746Z,97857.44
2023-04-21T02:42:02.075Z,97852.16
2023-04-21T02:44:29.501Z,97854.88
2023-04-21T02:46:56.695Z,97853.41
2023-04-21T02:49:24.102Z,97857.78
2023-04-21T02:51:51.223Z,97857.97
2023-04-21T02:54:18.184Z,97856.31
2023-04-21T02:56:45.202Z,97857.31
2023-04-21T02:59:16.622Z,97863.09
2023-04-21T03:01:43.864Z,97863.69
2023-04-21T03:04:10.940Z,97868.19
2023-04-21T03:06:39.193Z,97873.38
2023-04-21T03:09:06.355Z,97873.81
2023-04-21T03:11:33.736Z,97869.38
2023-04-21T03:14:01.093Z,97869.81
2023-04-21T03:16:28.170Z,97866.00
2023-04-21T03:18:55.670Z,97859.28
2023-04-21T03:21:23.028Z,97855.44
2023-04-21T03:23:50.051Z,97860.88
2023-04-21T03:26:17.447Z,97840.78
2023-04-21T03:28:45.326Z,97844.69
2023-04-21T03:31:13.895Z,97847.69
2023-04-21T03:33:40.892Z,97846.63
2023-04-21T03:36:08.206Z,97852.25
2023-04-21T03:38:35.716Z,97851.44
2023-04-21T03:41:05.255Z,97848.63
2023-04-21T03:43:32.911Z,97846.91
2023-04-21T03:45:59.874Z,97845.88
2023-04-21T03:48:28.698Z,97848.63
2023-04-21T03:50:55.844Z,97844.97
2023-04-21T03:53:23.509Z,97846.53
2023-04-21T03:55:51.052Z,97844.81
2023-04-21T03:58:18.679Z,97845.97
2023-04-21T04:00:46.031Z,97846.91
2023-04-21T04:03:13.239Z,97845.41
2023-04-21T04:05:40.869Z,97848.59
2023-04-21T04:08:07.913Z,97849.88
2023-04-21T04:10:35.076Z,97851.31
2023-04-21T04:13:02.396Z,97845.50
2023-04-21T04:15:29.793Z,97848.78
2023-04-21T04:17:56.830Z,97851.22
2023-04-21T04:20:24.674Z,97858.06
2023-04-21T04:22:52.079Z,97865.03
2023-04-21T04:25:19.163Z,97867.84
2023-04-21T04:27:46.911Z,97868.84
2023-04-21T04:30:14.385Z,97862.88
2023-04-21T04:32:41.925Z,97863.56
2023-04-21T04:35:10.212Z,97858.03
2023-04-21T04:37:37.697Z,97864.25
2023-04-21T04:40:06.455Z,97883.81
2023-04-21T04:42:34.763Z,97881.28
2023-04-21T04:45:02.065Z,97874.47
2023-04-21T04:47:29.749Z,97877.97
2023-04-21T04:49:57.080Z,97873.59
2023-04-21T04:52:24.034Z,97870.59
2023-04-21T04:54:51.448Z,97878.88
2023-04-21T04:57:18.809Z,97886.34
2023-04-21T04:59:46.505Z,97890.78
2023-04-21T05:02:14.004Z,97900.69
2023-04-21T05:04:41.179Z,97898.66
2023-04-21T05:07:08.750Z,97898.53
2023-04-21T05:09:36.155Z,97881.91
2023-04-21T05:12:03.987Z,97877.41
2023-04-21T05:14:31.373Z,97882.59
2023-04-21T05:16:59.258Z,97880.69
2023-04-21T05:19:26.273Z,97891.94
2023-04-21T05:21:54.438Z,97892.28
2023-04-21T05:24:24.220Z,97895.47
2023-04-21T05:26:51.170Z,97893.44
2023-04-21T05:29:18.976Z,97882.69
2023-04-21T05:31:46.369Z,97886.13
2023-04-21T05:34:13.402Z,97885.47
2023-04-21T05:36:44.151Z,97887.53
2023-04-21T05:39:11.185Z,97892.63
2023-04-21T05:41:38.180Z,97888.13
2023-04-21T05:44:05.698Z,97894.13
2023-04-21T05:46:34.759Z,97910.16
2023-04-21T05:49:02.545Z,97911.88
2023-04-21T05:51:29.982Z,97907.22
2023-04-21T05:53:57.529Z,97906.81
2023-04-21T05:56:24.901Z,97906.75
2023-04-21T05:58:52.223Z,97908.19
2023-04-21T06:01:19.170Z,97896.50
2023-04-21T06:03:50.141Z,97893.72
2023-04-21T06:06:18.213Z,97893.28
2023-04-21T06:08:45.614Z,97890.38
2023-04-21T06:11:13.147Z,97886.47
2023-04-21T06:13:43.010Z,97877.72
2023-04-21T06:16:10.659Z,97876.19
2023-04-21T06:18:38.233Z,97875.91
2023-04-21T06:21:05.854Z,97878.81
2023-04-21T06:23:33.265Z,97869.88
2023-04-21T06:26:05.474Z,97865.63
2023-04-21T06:28:33.319Z,97866.28
2023-04-21T06:31:06.895Z,97882.75
2023-04-21T06:33:36.238Z,97878.00
2023-04-21T06:36:03.500Z,97879.81
2023-04-21T06:38:31.050Z,97876.91
2023-04-21T06:40:58.542Z,97870.66
2023-04-21T06:43:26.081Z,97869.44
2023-04-21T06:45:53.097Z,97883.03
2023-04-21T06:48:20.278Z,97872.66
2023-04-21T06:50:47.837Z,97876.66
2023-04-21T06:53:15.527Z,97882.63
2023-04-21T06:55:43.101Z,97879.56
2023-04-21T06:58:11.353Z,97877.34
2023-04-21T07:00:38.601Z,97872.34
2023-04-21T07:03:06.582Z,97881.19
2023-04-21T07:05:33.711Z,97884.91
2023-04-21T07:08:01.455Z,97887.66
2023-04-21T07:10:29.093Z,97885.84
2023-04-21T07:12:56.499Z,97880.56
2023-04-21T07:15:23.947Z,97869.72
2023-04-21T07:17:51.501Z,97860.53
2023-04-21T07:20:19.067Z,97863.41
2023-04-21T07:22:46.493Z,97858.78
2023-04-21T07:25:13.846Z,97867.78
2023-04-21T07:27:40.956Z,97869.16
2023-04-21T07:30:08.655Z,97864.13
2023-04-21T07:32:38.461Z,97855.97
2023-04-21T07:35:06.958Z,97856.78
2023-04-21T07:37:34.494Z,97857.75
2023-04-21T07:40:01.956Z,97852.34
2023-04-21T07:42:29.372Z,97847.97
2023-04-21T07:44:57.468Z,97839.97
2023-04-21T07:47:25.009Z,97842.47
2023-04-21T07:49:52.064Z,97838.47
2023-04-21T07:52:19.445Z,97842.59
2023-04-21T07:54:46.378Z,97831.75
2023-04-21T07:57:13.854Z,97833.00
2023-04-21T07:59:41.288Z,97830.16
2023-04-21T08:02:09.032Z,97834.78
2023-04-21T08:04:36.766Z,97832.56
2023-04-21T08:07:04.474Z,97839.28
2023-04-21T08:09:31.812Z,97834.00
2023-04-21T08:11:59.283Z,97843.41
2023-04-21T08:14:27.179Z,97844.50
2023-04-21T08:16:56.714Z,97844.06
2023-04-21T08:19:24.930Z,97846.88
2023-04-21T08:21:52.325Z,97837.22
2023-04-21T08:24:20.076Z,97850.94
2023-04-21T08:26:48.050Z,97853.56
2023-04-21T08:29:15.708Z,97843.28
2023-04-21T08:31:42.752Z,97844.13
2023-04-21T08:34:10.236Z,97827.81
2023-04-21T08:36:37.923Z,97829.34
2023-04-21T08:39:05.504Z,97833.78
2023-04-21T08:41:32.898Z,97842.75
2023-04-21T08:44:00.393Z,97847.34
2023-04-21T08:46:28.634Z,97833.81
2023-04-21T08:48:57.004Z,97836.03
2023-04-21T08:51:27.526Z,97831.44
2023-04-21T08:53:55.549Z,97835.75
2023-04-21T08:56:24.837Z,97842.56
2023-04-21T08:58:52.413Z,97846.31
2023-04-21T09:01:20.109Z,97845.16
2023-04-21T09:03:47.780Z,97845.38
2023-04-21T09:06:15.430Z,97842.41
2023-04-21T09:08:44.973Z,97829.91
2023-04-21T09:11:15.846Z,97829.91
2023-04-21T09:13:44.514Z,97841.66
2023-04-21T09:16:21.713Z,97825.16
2023-04-21T09:18:50.429Z,97823.44
2023-04-21T09:21:19.661Z,97823.44
2023-04-21T09:23:52.296Z,97826.22
2023-04-21T09:26:25.001Z,97819.66
2023-04-21T09:28:53.149Z,97820.50
2023-04-21T09:31:25.357Z,97826.34
2023-04-21T09:33:59.641Z,97818.59
2023-04-21T09:36:31.700Z,97804.44
2023-04-21T09:41:32.988Z,97809.75
2023-04-21T09:44:01.659Z,97803.22
2023-04-21T09:46:36.046Z,97804.38
2023-04-21T09:49:03.942Z,97814.63
2023-04-21T09:51:56.372Z,97809.63
2023-04-21T09:56:56.319Z,97804.44
2023-04-21T09:59:31.321Z,97816.66
2023-04-21T10:02:00.155Z,97807.28
2023-04-21T10:04:30.672Z,97805.41
2023-04-21T10:07:00.574Z,97805.06
2023-04-21T10:09:37.387Z,97790.34
2023-04-21T10:12:06.943Z,97783.03
2023-04-21T10:14:36.290Z,97783.63
2023-04-21T10:17:08.987Z,97785.06
2023-04-21T10:19:40.744Z,97779.38
2023-04-21T10:22:11.105Z,97763.06
2023-04-21T10:24:40.404Z,97761.50
2023-04-21T10:27:40.342Z,97769.91
2023-04-21T10:30:28.825Z,97759.28
2023-04-21T10:33:06.302Z,97765.16
2023-04-21T10:36:04.738Z,97764.38
2023-04-21T10:38:43.206Z,97752.97
2023-04-21T10:41:33.382Z,97760.47
2023-04-21T10:44:14.146Z,97749.97
2023-04-21T10:46:52.346Z,97753.28
2023-04-21T10:49:30.527Z,97755.41
2023-04-21T10:52:03.051Z,97754.47
2023-04-21T10:54:47.958Z,97750.16
2023-04-21T10:57:18.668Z,97749.16
2023-04-21T10:59:47.380Z,97750.31
2023-04-21T11:02:16.581Z,97738.03
2023-04-21T11:04:49.191Z,97737.16
2023-04-21T11:07:34.744Z,97744.25
2023-04-21T11:10:05.105Z,97744.31
2023-04-21T11:12:38.473Z,97735.44
2023-04-21T11:15:09.078Z,97736.66
2023-04-21T11:17:38.304Z,97728.59
2023-04-21T11:20:06.944Z,97725.25
2023-04-21T11:22:36.370Z,97719.56
2023-04-21T11:25:04.645Z,97711.22
2023-04-21T11:27:31.951Z,97719.44
2023-04-21T11:29:59.461Z,97718.44
2023-04-21T11:32:26.862Z,97707.34
2023-04-21T11:34:54.831Z,97712.81
2023-04-21T11:37:27.833Z,97704.88
2023-04-21T11:40:01.527Z,97706.38
2023-04-21T11:42:29.078Z,97710.44
2023-04-21T11:44:57.227Z,97706.63
2023-04-21T11:47:27.228Z,97702.53
2023-04-21T11:50:01.938Z,97694.78
2023-04-21T11:52:36.058Z,97693.22
2023-04-21T11:55:11.434Z,97694.97
2023-04-21T11:57:41.113Z,97699.63
2023-04-21T12:00:14.497Z,97682.03
2023-04-21T12:02:42.709Z,97691.19
2023-04-21T12:05:12.411Z,97688.03
2023-04-21T12:08:15.497Z,97689.44
2023-04-21T12:10:47.158Z,97697.50
2023-04-21T12:13:22.150Z,97687.94
2023-04-21T12:15:49.661Z,97677.03
2023-04-21T12:18:17.375Z,97676.16
2023-04-21T12:20:52.215Z,97674.91
2023-04-21T12:23:19.628Z,97675.50
2023-04-21T12:25:47.267Z,97672.91
2023-04-21T12:28:18.017Z,97674.84
2023-04-21T12:30:45.202Z,97674.38
2023-04-21T12:33:13.151Z,97671.16
2023-04-21T12:35:40.385Z,97677.00
2023-04-21T12:38:07.863Z,97670.31
2023-04-21T12:40:36.207Z,97654.09
2023-04-21T12:43:03.657Z,97662.63
2023-04-21T12:45:32.599Z,97659.03
2023-04-21T12:48:00.399Z,97652.47
2023-04-21T12:50:27.449Z,97649.09
2023-04-21T12:52:55.276Z,97658.06
2023-04-21T12:55:26.362Z,97641.97
2023-04-21T12:57:53.865Z,97645.69
2023-04-21T13:00:21.146Z,97645.03
2023-04-21T13:02:48.670Z,97639.59
2023-04-21T13:05:16.033Z,97645.31
2023-04-21T13:07:43.723Z,97642.72
2023-04-21T13:10:11.317Z,97627.13
2023-04-21T13:12:38.742Z,97623.63
2023-04-21T13:15:06.751Z,97622.25
2023-04-21T13:17:33.865Z,97622.50
2023-04-21T13:20:01.447Z,97613.38
2023-04-21T13:22:29.362Z,97618.22
2023-04-21T13:24:56.692Z,97618.66
2023-04-21T13:27:24.070Z,97611.97
2023-04-21T13:29:51.149Z,97611.41
2023-04-21T13:32:18.628Z,97609.13
2023-04-21T13:34:46.015Z,97611.63
2023-04-21T13:37:16.986Z,97606.34
2023-04-21T13:39:44.615Z,97610.13
2023-04-21T13:42:11.746Z,97599.22
2023-04-21T13:44:39.042Z,97594.50
2023-04-21T13:47:08.687Z,97602.81
2023-04-21T13:49:36.619Z,97608.81
2023-04-21T13:52:04.354Z,97604.78
2023-04-21T13:54:32.092Z,97592.34
2023-04-21T13:56:59.650Z,97578.03
2023-04-21T13:59:27.404Z,97567.03
2023-04-21T14:01:54.938Z,97572.91
2023-04-21T14:04:22.698Z,97584.78
2023-04-21T14:06:51.175Z,97576.50
2023-04-21T14:09:18.494Z,97578.94
2023-04-21T14:11:46.076Z,97585.97
2023-04-21T14:16:41.804Z,97584.22
2023-04-21T14:19:10.321Z,97584.22
2023-04-21T14:21:37.750Z,97577.25
2023-04-21T14:24:07.675Z,97576.19
2023-04-21T14:26:34.881Z,97571.31
2023-04-21T14:29:02.389Z,97563.84
2023-04-21T14:31:30.012Z,97555.81
2023-04-21T14:33:57.017Z,97552.28
2023-04-21T14:36:24.459Z,97553.94
2023-04-21T14:38:51.857Z,97548.25
2023-04-21T14:41:18.886Z,97555.50
2023-04-21T14:43:47.706Z,97547.19
2023-04-21T14:46:16.834Z,97542.34
2023-04-21T14:48:44.977Z,97550.66
2023-04-21T14:51:12.312Z,97536.97
2023-04-21T14:53:40.719Z,97535.34
2023-04-21T14:56:07.807Z,97534.94
2023-04-21T14:58:35.219Z,97527.19
2023-04-21T15:01:02.375Z,97526.22
2023-04-21T15:03:29.655Z,97525.66
2023-04-21T15:05:57.147Z,97521.88
2023-04-21T15:08:24.287Z,97519.22
2023-04-21T15:10:51.667Z,97526.47
2023-04-21T15:13:19.115Z,97522.84
2023-04-21T15:15:46.867Z,97524.97
2023-04-21T15:18:14.297Z,97528.50
2023-04-21T15:20:45.636Z,97526.47
2023-04-21T15:23:14.051Z,97517.06
2023-04-21T15:25:41.679Z,97522.63
2023-04-21T15:28:08.815Z,97524.41
2023-04-21T15:30:36.291Z,97521.44
2023-04-21T15:33:03.293Z,97519.78
2023-04-21T15:35:30.422Z,97534.19
2023-04-21T15:37:57.813Z,97520.13
2023-04-21T15:40:25.259Z,97522.50
2023-04-21T15:42:53.122Z,97520.63
2023-04-21T15:45:20.632Z,97521.16
2023-04-21T15:47:47.635Z,97522.50
2023-04-21T15:50:14.682Z,97525.66
2023-04-21T15:52:43.411Z,97519.38
2023-04-21T15:55:13.908Z,97526.13
2023-04-21T15:57:41.532Z,97518.31
2023-04-21T16:00:12.726Z,97514.66
2023-04-21T16:02:40.008Z,97513.16
2023-04-21T16:05:07.880Z,97511.97
2023-04-21T16:07:35.146Z,97510.91
2023-04-21T16:10:02.599Z,97512.41
2023-04-21T16:12:32.946Z,97506.69
2023-04-21T16:15:09.157Z,97513.06
2023-04-21T16:17:43.841Z,97514.59
2023-04-21T16:20:12.337Z,97514.19
2023-04-21T16:22:39.369Z,97520.06
2023-04-21T16:25:06.757Z,97510.00
2023-04-21T16:27:33.862Z,97513.00
2023-04-21T16:30:00.998Z,97509.19
2023-04-21T16:32:28.082Z,97505.50
2023-04-21T16:34:55.925Z,97516.41
2023-04-21T16:37:23.828Z,97497.56
2023-04-21T16:39:51.080Z,97504.66
2023-04-21T16:42:18.335Z,97506.19
2023-04-21T16:44:46.782Z,97503.00
2023-04-21T16:47:14.595Z,97504.84
2023-04-21T16:49:42.152Z,97503.84
2023-04-21T16:52:09.323Z,97508.25
2023-04-21T16:54:36.834Z,97509.91
2023-04-21T16:57:04.002Z,97506.56
2023-04-21T16:59:33.025Z,97510.66
2023-04-21T17:02:00.831Z,97504.34
2023-04-21T17:04:28.303Z,97501.09
2023-04-21T17:06:55.617Z,97502.41
2023-04-21T17:09:23.236Z,97503.75
2023-04-21T17:11:50.167Z,97507.22
2023-04-21T17:14:17.143Z,97503.47
2023-04-21T17:16:44.689Z,97497.53
2023-04-21T17:19:12.229Z,97507.63
2023-04-21T17:21:39.215Z,97500.00
2023-04-21T17:24:06.335Z,97500.38
2023-04-21T17:26:33.704Z,97509.16
2023-04-21T17:29:00.659Z,97507.97
2023-04-21T17:31:33.020Z,97506.28
2023-04-21T17:34:00.318Z,97507.53
2023-04-21T17:36:31.004Z,97509.13
2023-04-21T17:38:59.132Z,97508.88
2023-04-21T17:41:27.251Z,97511.50
2023-04-21T17:43:54.949Z,97511.66
2023-04-21T17:46:25.034Z,97508.78
2023-04-21T17:48:52.687Z,97509.38
2023-04-21T17:51:20.347Z,97516.38
2023-04-21T17:53:47.561Z,97524.13
2023-04-21T17:56:15.028Z,97529.25
2023-04-21T17:58:42.794Z,97527.38
2023-04-21T18:01:10.151Z,97542.19
2023-04-21T18:03:41.203Z,97540.50
2023-04-21T18:06:10.689Z,97542.03
2023-04-21T18:08:38.226Z,97548.03
2023-04-21T18:11:06.373Z,97548.44
2023-04-21T18:13:34.086Z,97537.16
2023-04-21T18:16:01.681Z,97541.72
2023-04-21T18:18:29.133Z,97544.97
2023-04-21T18:20:56.234Z,97547.63
2023-04-21T18:23:23.178Z,97546.09
2023-04-21T18:25:50.958Z,97542.66
2023-04-21T18:28:18.327Z,97546.78
2023-04-21T18:30:45.563Z,97547.16
2023-04-21T18:33:13.141Z,97555.72
2023-04-21T18:35:41.914Z,97548.97
2023-04-21T18:38:11.495Z,97563.19
2023-04-21T18:40:40.494Z,97564.75
2023-04-21T18:43:09.792Z,97571.41
2023-04-21T18:45:37.840Z,97579.06
2023-04-21T18:48:05.474Z,97574.75
2023-04-21T18:50:35.227Z,97576.25
2023-04-21T18:53:04.072Z,97580.34
2023-04-21T18:55:33.411Z,97587.94
2023-04-21T18:58:01.199Z,97593.66
2023-04-21T19:00:28.321Z,97578.31
2023-04-21T19:02:56.025Z,97586.66
2023-04-21T19:05:23.067Z,97597.06
2023-04-21T19:07:50.559Z,97590.88
2023-04-21T19:10:19.327Z,97599.97
2023-04-21T19:12:46.358Z,97598.59
2023-04-21T19:15:13.847Z,97603.69
2023-04-21T19:17:41.712Z,97611.53
2023-04-21T19:20:10.072Z,97618.03
2023-04-21T19:22:37.447Z,97613.72
2023-04-21T19:25:06.178Z,97616.97
2023-04-21T19:27:33.125Z,97621.81
2023-04-21T19:30:00.726Z,97618.34
2023-04-21T19:32:30.916Z,97628.16
2023-04-21T19:34:57.978Z,97629.88
2023-04-21T19:37:26.512Z,97622.00
2023-04-21T19:39:53.619Z,97624.38
2023-04-21T19:42:20.718Z,97624.06
2023-04-21T19:44:48.101Z,97617.56
2023-04-21T19:47:15.559Z,97614.97
2023-04-21T19:49:42.679Z,97620.66
2023-04-21T19:52:10.086Z,97624.34
2023-04-21T19:54:38.069Z,97631.22
2023-04-21T19:57:05.307Z,97627.66
2023-04-21T19:59:34.032Z,97624.22
2023-04-21T20:02:01.140Z,97631.38
2023-04-21T20:04:28.634Z,97631.56
2023-04-21T20:06:55.699Z,97629.53
2023-04-21T20:09:22.643Z,97625.56
2023-04-21T20:11:50.061Z,97627.44
2023-04-21T20:14:18.328Z,97628.44
2023-04-21T20:16:46.426Z,97624.94
2023-04-21T20:19:15.146Z,97617.25
2023-04-21T20:21:44.100Z,97623.00
2023-04-21T20:24:12.308Z,97629.28
2023-04-21T20:26:39.294Z,97619.16
2023-04-21T20:29:06.480Z,97620.28
2023-04-21T20:31:34.311Z,97612.84
2023-04-21T20:34:01.306Z,97616.19
2023-04-21T20:36:28.537Z,97623.47
2023-04-21T20:38:57.407Z,97627.53
2023-04-21T20:41:24.868Z,97627.38
2023-04-21T20:43:52.365Z,97626.06
2023-04-21T20:46:19.508Z,97627.75
2023-04-21T20:48:47.112Z,97628.56
2023-04-21T20:51:14.239Z,97632.22
2023-04-21T20:53:41.225Z,97638.13
2023-04-21T20:56:08.692Z,97637.34
2023-04-21T20:58:36.159Z,97635.72
2023-04-21T21:01:03.374Z,97631.41
2023-04-21T21:03:31.046Z,97636.03
2023-04-21T21:05:58.392Z,97635.72
2023-04-21T21:08:25.650Z,97636.91
2023-04-21T21:10:53.411Z,97634.59
2023-04-21T21:13:20.519Z,97641.47
2023-04-21T21:15:47.831Z,97641.47
2023-04-21T21:18:15.447Z,97645.09
2023-04-21T21:20:43.010Z,97644.97
2023-04-21T21:23:11.689Z,97642.78
2023-04-21T21:25:39.031Z,97636.69
2023-04-21T21:28:07.045Z,97641.97
2023-04-21T21:30:35.996Z,97644.66
2023-04-21T21:33:03.038Z,97641.56
2023-04-21T21:35:30.302Z,97639.94
2023-04-21T21:37:57.380Z,97637.25
2023-04-21T21:40:24.815Z,97628.72
2023-04-21T21:42:51.868Z,97627.47
2023-04-21T21:45:18.854Z,97629.81
2023-04-21T21:47:46.520Z,97631.34
2023-04-21T21:50:13.543Z,97629.50
2023-04-21T21:52:40.525Z,97618.34
2023-04-21T21:55:08.409Z,97622.41
2023-04-21T21:57:35.493Z,97613.44
2023-04-21T22:00:03.270Z,97620.28
2023-04-21T22:02:32.172Z,97621.84
2023-04-21T22:04:59.768Z,97620.94
2023-04-21T22:07:26.857Z,97620.44
2023-04-21T22:09:53.849Z,97609.38
2023-04-21T22:12:21.453Z,97605.94
2023-04-21T22:14:48.402Z,97604.41
2023-04-21T22:17:15.919Z,97596.41
2023-04-21T22:19:43.312Z,97602.31
2023-04-21T22:22:10.840Z,97601.66
2023-04-21T22:24:38.228Z,97598.91
2023-04-21T22:27:05.355Z,97606.94
2023-04-21T22:29:32.509Z,97603.19
2023-04-21T22:32:00.048Z,97607.47
2023-04-21T22:34:27.406Z,97613.72
2023-04-21T22:36:54.825Z,97606.19
2023-04-21T22:39:21.926Z,97608.72
2023-04-21T22:41:49.952Z,97617.25
2023-04-21T22:44:16.910Z,97607.94
2023-04-21T22:46:44.503Z,97617.06
2023-04-21T22:49:11.861Z,97612.47
2023-04-21T22:51:38.997Z,97611.16
2023-04-21T22:54:06.679Z,97624.50
2023-04-21T22:56:34.027Z,97621.88
2023-04-21T22:59:01.122Z,97614.78
2023-04-21T23:01:29.179Z,97611.97
2023-04-21T23:03:57.590Z,97609.91
2023-04-21T23:06:25.261Z,97614.53
2023-04-21T23:08:53.081Z,97606.78
2023-04-21T23:11:20.770Z,97605.13
2023-04-21T23:13:47.801Z,97608.50
2023-04-21T23:16:15.325Z,97605.84
2023-04-21T23:18:42.691Z,97614.34
2023-04-21T23:21:09.766Z,97613.59
2023-04-21T23:23:37.195Z,97615.97
2023-04-21T23:26:04.586Z,97626.41
2023-04-21T23:28:31.814Z,97626.28
2023-04-21T23:30:59.208Z,97624.19
2023-04-21T23:33:26.845Z,97617.63
2023-04-21T23:35:54.849Z,97626.03
2023-04-21T23:38:21.958Z,97621.31
2023-04-21T23:40:48.992Z,97611.72
2023-04-21T23:43:16.062Z,97623.75
2023-04-21T23:45:43.437Z,97615.09
2023-04-21T23:48:11.746Z,97614.19
2023-04-21T23:50:39.230Z,97605.78
2023-04-21T23:53:06.355Z,97607.34
2023-04-21T23:55:33.445Z,97616.44
2023-04-21T23:58:01.121Z,97601.97
